createdAt,value
2023-05-21T00:01:40.343Z,99106.06
2023-05-21T00:04:25.583Z,99102.94
2023-05-21T00:07:11.682Z,99103.34
2023-05-21T00:09:57.559Z,99106.56
2023-05-21T00:12:43.065Z,99095.47
2023-05-21T00:15:28.432Z,99098.66
2023-05-21T00:18:13.678Z,99091.94
2023-05-21T00:20:59.401Z,99090.72
2023-05-21T00:23:45.494Z,99091.94
2023-05-21T00:26:30.958Z,99087.59
2023-05-21T00:29:16.369Z,99084.03
2023-05-21T00:32:01.684Z,99077.34
2023-05-21T00:34:47.368Z,99084.88
2023-05-21T00:37:32.752Z,99077.34
2023-05-21T00:40:18.981Z,99066.66
2023-05-21T00:43:04.623Z,99071.44
2023-05-21T00:45:49.807Z,99071.06
2023-05-21T00:48:35.245Z,99066.72
2023-05-21T00:51:21.765Z,99066.72
2023-05-21T00:54:08.278Z,99067.94
2023-05-21T00:56:54.328Z,99073.09
2023-05-21T00:59:40.084Z,99068.00
2023-05-21T01:02:26.262Z,99067.19
2023-05-21T01:05:11.865Z,99062.09
2023-05-21T01:07:58.994Z,99068.41
2023-05-21T01:10:44.655Z,99064.06
2023-05-21T01:13:32.368Z,99059.34
2023-05-21T01:16:17.901Z,99064.91
2023-05-21T01:19:04.470Z,99053.03
2023-05-21T01:21:53.905Z,99066.13
2023-05-21T01:24:39.494Z,99056.63
2023-05-21T01:27:24.660Z,99053.06
2023-05-21T01:30:10.748Z,99057.84
2023-05-21T01:33:15.473Z,99050.75
2023-05-21T01:36:08.732Z,99049.16
2023-05-21T01:39:30.104Z,99048.78
2023-05-21T01:42:16.808Z,99036.91
2023-05-21T01:45:06.148Z,99036.91
2023-05-21T01:47:54.810Z,99037.69
2023-05-21T01:50:41.988Z,99028.59
2023-05-21T01:53:27.470Z,99027.00
2023-05-21T01:56:12.874Z,99035.34
2023-05-21T01:59:00.309Z,99026.25
2023-05-21T02:01:45.998Z,99018.34
2023-05-21T02:04:31.607Z,99025.09
2023-05-21T02:07:18.450Z,99027.09
2023-05-21T02:10:04.078Z,99030.28
2023-05-21T02:12:49.207Z,99023.53
2023-05-21T02:15:35.398Z,99025.50
2023-05-21T02:18:21.523Z,99024.72
2023-05-21T02:21:06.712Z,99016.03
2023-05-21T02:23:51.880Z,99013.28
2023-05-21T02:26:37.387Z,99014.50
2023-05-21T02:29:22.710Z,99014.50
2023-05-21T02:32:08.086Z,99007.34
2023-05-21T02:34:53.335Z,99012.91
2023-05-21T02:37:40.470Z,99014.91
2023-05-21T02:40:25.896Z,99009.75
2023-05-21T02:43:11.098Z,99010.56
2023-05-21T02:45:56.405Z,99009.75
2023-05-21T02:48:42.498Z,99010.97
2023-05-21T02:51:28.253Z,99003.88
2023-05-21T02:54:13.617Z,99006.66
2023-05-21T02:56:58.810Z,99005.06
2023-05-21T02:59:45.380Z,99005.06
2023-05-21T03:02:31.287Z,99002.28
2023-05-21T03:05:16.495Z,98997.97
2023-05-21T03:08:03.665Z,99001.16
2023-05-21T03:10:49.165Z,99001.94
2023-05-21T03:13:35.681Z,98995.59
2023-05-21T03:16:22.581Z,98993.25
2023-05-21T03:19:08.641Z,98993.25
2023-05-21T03:21:54.717Z,98992.88
2023-05-21T03:24:40.201Z,98998.88
2023-05-21T03:27:26.152Z,99002.41
2023-05-21T03:30:12.251Z,98992.50
2023-05-21T03:33:15.556Z,99000.41
2023-05-21T03:36:02.076Z,98999.63
2023-05-21T03:38:51.382Z,99000.41
2023-05-21T03:41:38.271Z,98996.47
2023-05-21T03:44:32.521Z,98995.66
2023-05-21T03:47:42.110Z,99002.00
2023-05-21T03:50:29.056Z,98992.88
2023-05-21T03:53:14.777Z,98994.09
2023-05-21T03:56:00.693Z,98998.41
2023-05-21T03:58:47.288Z,99012.66
2023-05-21T04:01:33.359Z,99000.00
2023-05-21T04:04:20.608Z,98999.22
2023-05-21T04:07:10.336Z,99004.34
2023-05-21T04:09:56.428Z,98999.94
2023-05-21T04:12:42.119Z,99001.44
2023-05-21T04:15:28.752Z,98997.84
2023-05-21T04:18:16.613Z,99001.34
2023-05-21T04:21:03.504Z,99007.59
2023-05-21T04:23:49.359Z,98996.09
2023-05-21T04:27:01.416Z,98997.59
2023-05-21T04:29:50.621Z,99003.88
2023-05-21T04:32:37.136Z,99008.59
2023-05-21T04:35:26.511Z,99015.31
2023-05-21T04:38:12.600Z,99006.53
2023-05-21T04:40:58.829Z,99000.16
2023-05-21T04:43:45.029Z,99002.50
2023-05-21T04:46:32.308Z,99003.63
2023-05-21T04:49:21.074Z,99005.59
2023-05-21T04:52:06.350Z,99008.72
2023-05-21T04:54:51.873Z,99007.88
2023-05-21T04:57:37.843Z,99005.81
2023-05-21T05:00:26.184Z,99008.97
2023-05-21T05:03:14.391Z,99004.97
2023-05-21T05:20:45.260Z,98993.63
2023-05-21T05:23:30.913Z,98988.78
2023-05-21T05:26:16.388Z,98985.53
2023-05-21T05:29:01.679Z,98983.91
2023-05-21T05:31:47.792Z,98983.03
2023-05-21T05:34:34.286Z,98981.41
2023-05-21T05:37:20.218Z,98983.72
2023-05-21T05:40:06.410Z,98984.84
2023-05-21T05:42:53.041Z,98980.41
2023-05-21T05:45:39.797Z,98974.38
2023-05-21T05:48:30.209Z,98972.41
2023-05-21T05:51:42.281Z,98975.50
2023-05-21T05:54:28.296Z,98973.88
2023-05-21T05:57:15.268Z,98969.88
2023-05-21T06:00:00.712Z,98971.47
2023-05-21T06:02:46.090Z,98963.56
2023-05-21T06:05:31.510Z,98976.94
2023-05-21T06:08:17.703Z,98978.06
2023-05-21T06:11:04.448Z,98982.84
2023-05-21T06:13:50.113Z,98980.84
2023-05-21T06:16:37.349Z,98976.09
2023-05-21T06:19:23.325Z,98975.22
2023-05-21T06:22:09.329Z,98974.81
2023-05-21T06:24:54.760Z,98967.25
2023-05-21T06:27:40.332Z,98977.06
2023-05-21T06:30:33.307Z,98970.28
2023-05-21T06:33:19.681Z,98973.78
2023-05-21T06:36:05.594Z,98976.91
2023-05-21T06:38:51.205Z,98975.69
2023-05-21T06:41:37.085Z,98982.81
2023-05-21T06:44:41.292Z,98979.69
2023-05-21T06:47:33.477Z,98979.28
2023-05-21T06:50:18.959Z,98982.81
2023-05-21T06:53:04.937Z,98983.59
2023-05-21T06:55:53.846Z,98984.38
2023-05-21T06:58:46.455Z,98989.16
2023-05-21T07:01:32.387Z,98985.97
2023-05-21T07:04:18.581Z,98992.28
2023-05-21T07:07:04.982Z,98984.38
2023-05-21T07:09:51.261Z,98993.06
2023-05-21T07:12:37.612Z,98989.16
2023-05-21T07:15:23.896Z,98993.06
2023-05-21T07:18:09.825Z,98985.88
2023-05-21T07:20:55.601Z,98994.13
2023-05-21T07:23:41.006Z,98989.00
2023-05-21T07:26:27.221Z,98988.16
2023-05-21T07:29:13.360Z,98990.16
2023-05-21T07:31:59.066Z,98981.81
2023-05-21T07:34:44.557Z,98986.16
2023-05-21T07:37:30.287Z,98988.06
2023-05-21T07:40:16.621Z,98987.63
2023-05-21T07:43:02.797Z,98993.97
2023-05-21T07:45:49.687Z,98986.88
2023-05-21T07:48:35.804Z,98993.19
2023-05-21T07:51:23.460Z,98988.41
2023-05-21T07:54:08.786Z,98994.69
2023-05-21T07:56:55.169Z,98996.63
2023-05-21T08:00:01.048Z,98996.91
2023-05-21T08:02:49.948Z,98991.78
2023-05-21T08:05:36.062Z,98986.56
2023-05-21T08:08:24.566Z,98995.78
2023-05-21T08:11:13.020Z,98997.31
2023-05-21T08:13:59.174Z,98994.13
2023-05-21T08:16:45.321Z,98990.56
2023-05-21T08:19:31.292Z,98992.56
2023-05-21T08:22:16.970Z,98998.19
2023-05-21T08:25:04.586Z,98999.75
2023-05-21T08:27:52.342Z,98993.72
2023-05-21T08:30:39.064Z,99001.16
2023-05-21T08:33:24.832Z,98995.09
2023-05-21T08:36:10.780Z,98991.97
2023-05-21T08:39:05.858Z,98998.31
2023-05-21T08:42:01.380Z,98988.41
2023-05-21T08:44:52.696Z,98988.41
2023-05-21T08:47:44.096Z,98997.88
2023-05-21T08:50:31.646Z,98991.47
2023-05-21T08:53:28.842Z,98992.94
2023-05-21T08:56:17.556Z,98984.16
2023-05-21T08:59:10.911Z,98987.28
2023-05-21T09:01:58.385Z,98994.78
2023-05-21T09:04:57.343Z,98986.34
2023-05-21T09:08:07.008Z,98988.63
2023-05-21T09:11:16.301Z,98988.28
2023-05-21T09:14:08.338Z,98993.38
2023-05-21T09:17:14.334Z,98990.88
2023-05-21T09:20:14.552Z,98987.56
2023-05-21T09:23:06.795Z,98987.56
2023-05-21T09:25:52.684Z,98989.91
2023-05-21T09:28:44.625Z,98984.34
2023-05-21T09:31:30.300Z,98985.91
2023-05-21T09:34:16.018Z,98992.94
2023-05-21T09:37:06.513Z,98987.56
2023-05-21T09:39:54.310Z,98980.88
2023-05-21T09:42:41.285Z,98984.97
2023-05-21T09:45:28.217Z,98988.09
2023-05-21T09:48:16.678Z,98984.34
2023-05-21T09:51:11.972Z,98974.72
2023-05-21T09:53:58.219Z,98978.28
2023-05-21T09:56:44.351Z,98980.94
2023-05-21T09:59:39.516Z,98984.06
2023-05-21T10:02:26.841Z,98980.72
2023-05-21T10:05:14.784Z,98982.03
2023-05-21T10:08:04.635Z,98977.22
2023-05-21T10:10:51.251Z,98977.75
2023-05-21T10:13:42.002Z,98977.38
2023-05-21T10:16:28.817Z,98971.81
2023-05-21T10:19:16.066Z,98965.03
2023-05-21T10:22:01.538Z,98958.25
2023-05-21T10:24:47.799Z,98954.19
2023-05-21T10:27:35.391Z,98955.81
2023-05-21T10:30:24.779Z,98958.19
2023-05-21T10:33:16.435Z,98963.13
2023-05-21T10:36:02.666Z,98954.00
2023-05-21T10:38:48.480Z,98962.34
2023-05-21T10:41:42.794Z,98962.44
2023-05-21T10:44:43.463Z,98958.09
2023-05-21T10:47:45.039Z,98958.88
2023-05-21T10:50:52.369Z,98960.00
2023-05-21T10:53:59.368Z,98952.53
2023-05-21T10:56:55.162Z,98956.16
2023-05-21T10:59:47.082Z,98962.88
2023-05-21T11:02:33.233Z,98958.53
2023-05-21T11:05:43.826Z,98957.22
2023-05-21T11:08:31.876Z,98955.22
2023-05-21T11:11:44.318Z,98957.66
2023-05-21T11:14:38.255Z,98944.84
2023-05-21T11:17:38.582Z,98939.28
2023-05-21T11:20:35.029Z,98939.75
2023-05-21T11:23:21.251Z,98945.56
2023-05-21T11:26:06.982Z,98949.56
2023-05-21T11:29:04.676Z,98940.53
2023-05-21T11:32:01.744Z,98936.84
2023-05-21T11:34:48.354Z,98937.19
2023-05-21T11:37:35.205Z,98941.91
2023-05-21T11:40:33.222Z,98941.41
2023-05-21T11:43:18.603Z,98936.53
2023-05-21T11:46:04.468Z,98933.75
2023-05-21T11:48:51.064Z,98936.06
2023-05-21T11:51:37.153Z,98927.97
2023-05-21T11:54:24.006Z,98928.22
2023-05-21T11:57:10.225Z,98931.47
2023-05-21T11:59:56.319Z,98932.44
2023-05-21T12:02:51.395Z,98932.44
2023-05-21T12:05:49.788Z,98929.31
2023-05-21T12:08:35.877Z,98929.53
2023-05-21T12:11:21.924Z,98946.84
2023-05-21T12:14:11.403Z,98937.25
2023-05-21T12:16:58.044Z,98925.88
2023-05-21T12:19:44.046Z,98929.34
2023-05-21T12:22:29.903Z,98928.66
2023-05-21T12:25:19.351Z,98933.00
2023-05-21T12:28:05.445Z,98930.34
2023-05-21T12:30:51.226Z,98920.41
2023-05-21T12:33:36.493Z,98920.31
2023-05-21T12:36:29.858Z,98929.88
2023-05-21T12:39:15.547Z,98934.59
2023-05-21T12:42:02.433Z,98927.69
2023-05-21T12:44:47.808Z,98920.91
2023-05-21T12:47:33.620Z,98906.88
2023-05-21T12:50:21.133Z,98910.09
2023-05-21T12:53:09.450Z,98917.00
2023-05-21T12:55:56.374Z,98906.00
2023-05-21T12:58:43.063Z,98906.13
2023-05-21T13:01:28.485Z,98906.53
2023-05-21T13:04:14.277Z,98908.56
2023-05-21T13:06:59.849Z,98908.38
2023-05-21T13:09:45.126Z,98903.03
2023-05-21T13:12:31.480Z,98901.03
2023-05-21T13:15:17.141Z,98910.41
2023-05-21T13:18:02.669Z,98893.69
2023-05-21T13:20:48.729Z,98889.78
2023-05-21T13:23:34.344Z,98896.34
2023-05-21T13:26:20.076Z,98899.56
2023-05-21T13:29:05.280Z,98915.16
2023-05-21T13:31:50.650Z,98901.38
2023-05-21T13:34:35.881Z,98899.22
2023-05-21T13:37:21.459Z,98892.78
2023-05-21T13:40:11.116Z,98885.78
2023-05-21T13:42:57.008Z,98898.72
2023-05-21T13:45:44.058Z,98891.47
2023-05-21T13:48:29.747Z,98883.78
2023-05-21T13:51:25.597Z,98882.47
2023-05-21T13:54:21.349Z,98883.34
2023-05-21T13:57:07.078Z,98883.34
2023-05-21T13:59:52.881Z,98878.44
2023-05-21T14:02:38.452Z,98878.34
2023-05-21T14:05:24.128Z,98881.91
2023-05-21T14:08:09.414Z,98876.66
2023-05-21T14:10:54.593Z,98868.91
2023-05-21T14:13:40.125Z,98867.47
2023-05-21T14:16:27.525Z,98862.22
2023-05-21T14:19:13.064Z,98861.78
2023-05-21T14:21:59.951Z,98859.78
2023-05-21T14:24:46.110Z,98865.75
2023-05-21T14:27:31.643Z,98860.88
2023-05-21T14:30:17.162Z,98864.53
2023-05-21T14:33:02.694Z,98867.88
2023-05-21T14:35:48.469Z,98872.47
2023-05-21T14:38:33.825Z,98878.13
2023-05-21T14:41:19.750Z,98870.31
2023-05-21T14:44:05.667Z,98873.44
2023-05-21T14:46:51.457Z,98871.53
2023-05-21T14:49:37.003Z,98875.22
2023-05-21T14:52:22.342Z,98872.53
2023-05-21T14:55:08.314Z,98874.97
2023-05-21T14:57:53.726Z,98866.63
2023-05-21T15:00:39.277Z,98859.16
2023-05-21T15:03:25.007Z,98863.97
2023-05-21T15:06:10.730Z,98869.06
2023-05-21T15:08:56.337Z,98863.97
2023-05-21T15:11:43.900Z,98868.06
2023-05-21T15:14:29.247Z,98856.34
2023-05-21T15:17:14.860Z,98857.59
2023-05-21T15:20:04.557Z,98858.34
2023-05-21T15:22:49.635Z,98863.69
2023-05-21T15:25:35.042Z,98866.47
2023-05-21T15:28:20.729Z,98867.28
2023-05-21T15:31:06.145Z,98865.25
2023-05-21T15:33:51.615Z,98859.69
2023-05-21T15:36:37.226Z,98864.56
2023-05-21T15:39:22.583Z,98850.66
2023-05-21T15:42:07.956Z,98856.78
2023-05-21T15:44:53.510Z,98854.34
2023-05-21T15:47:42.714Z,98849.09
2023-05-21T15:50:28.537Z,98843.53
2023-05-21T15:53:14.141Z,98849.75
2023-05-21T15:55:59.701Z,98850.22
2023-05-21T15:58:45.059Z,98839.09
2023-05-21T16:01:31.539Z,98845.78
2023-05-21T16:04:20.133Z,98841.41
2023-05-21T16:07:05.701Z,98835.06
2023-05-21T16:09:51.014Z,98845.00
2023-05-21T16:12:36.449Z,98841.41
2023-05-21T16:15:22.341Z,98842.97
2023-05-21T16:18:09.765Z,98832.19
2023-05-21T16:20:56.623Z,98838.31
2023-05-21T16:23:42.369Z,98839.75
2023-05-21T16:26:27.621Z,98836.63
2023-05-21T16:29:13.092Z,98832.28
2023-05-21T16:31:58.938Z,98833.19
2023-05-21T16:34:44.507Z,98836.31
2023-05-21T16:37:29.936Z,98833.50
2023-05-21T16:40:15.460Z,98831.59
2023-05-21T16:43:02.279Z,98838.31
2023-05-21T16:45:49.310Z,98836.72
2023-05-21T16:48:37.305Z,98837.16
2023-05-21T16:51:23.476Z,98842.75
2023-05-21T16:54:09.229Z,98841.97
2023-05-21T16:56:55.042Z,98839.84
2023-05-21T16:59:41.204Z,98837.31
2023-05-21T17:02:26.839Z,98840.41
2023-05-21T17:05:12.653Z,98845.63
2023-05-21T17:07:58.009Z,98847.19
2023-05-21T17:10:43.380Z,98842.41
2023-05-21T17:13:28.565Z,98841.63
2023-05-21T17:16:14.498Z,98840.50
2023-05-21T17:19:00.157Z,98840.50
2023-05-21T17:21:46.043Z,98842.50
2023-05-21T17:24:31.721Z,98848.84
2023-05-21T17:27:17.136Z,98851.31
2023-05-21T17:30:03.888Z,98847.75
2023-05-21T17:32:49.507Z,98844.63
2023-05-21T17:35:35.083Z,98838.16
2023-05-21T17:38:20.947Z,98839.03
2023-05-21T17:41:06.453Z,98843.84
2023-05-21T17:43:51.956Z,98848.28
2023-05-21T17:46:37.218Z,98843.16
2023-05-21T17:49:22.629Z,98846.84
2023-05-21T17:52:08.413Z,98835.34
2023-05-21T17:54:53.514Z,98839.81
2023-05-21T17:57:39.013Z,98846.59
2023-05-21T18:00:24.666Z,98850.59
2023-05-21T18:03:10.136Z,98853.81
2023-05-21T18:05:56.179Z,98846.00
2023-05-21T18:08:41.375Z,98849.56
2023-05-21T18:11:27.000Z,98856.34
2023-05-21T18:14:12.638Z,98857.63
2023-05-21T18:16:58.081Z,98866.88
2023-05-21T18:19:43.936Z,98862.09
2023-05-21T18:22:29.053Z,98860.53
2023-05-21T18:25:14.424Z,98867.84
2023-05-21T18:28:00.348Z,98869.50
2023-05-21T18:30:45.978Z,98873.94
2023-05-21T18:33:31.562Z,98874.72
2023-05-21T18:36:17.559Z,98881.94
2023-05-21T18:39:02.872Z,98876.03
2023-05-21T18:41:51.660Z,98869.78
2023-05-21T18:44:37.131Z,98873.78
2023-05-21T18:47:22.897Z,98881.78
2023-05-21T18:50:11.025Z,98881.44
2023-05-21T18:52:56.505Z,98878.75
2023-05-21T18:55:42.027Z,98878.06
2023-05-21T18:58:29.289Z,98880.50
2023-05-21T19:01:15.482Z,98878.25
2023-05-21T19:04:00.992Z,98888.25
2023-05-21T19:06:47.097Z,98885.47
2023-05-21T19:09:32.343Z,98880.09
2023-05-21T19:12:17.633Z,98886.19
2023-05-21T19:15:03.996Z,98886.19
2023-05-21T19:17:49.378Z,98891.75
2023-05-21T19:20:37.089Z,98888.25
2023-05-21T19:23:24.590Z,98901.81
2023-05-21T19:26:09.867Z,98905.00
2023-05-21T19:28:55.496Z,98902.66
2023-05-21T19:31:41.527Z,98896.78
2023-05-21T19:34:27.061Z,98904.31
2023-05-21T19:37:12.659Z,98902.41
2023-05-21T19:39:57.932Z,98901.97
2023-05-21T19:42:43.076Z,98906.41
2023-05-21T19:45:28.380Z,98906.84
2023-05-21T19:48:13.636Z,98905.25
2023-05-21T19:50:58.711Z,98910.47
2023-05-21T19:53:44.014Z,98903.31
2023-05-21T19:56:29.250Z,98898.66
2023-05-21T19:59:14.857Z,98903.03
2023-05-21T20:02:00.493Z,98904.69
2023-05-21T20:04:46.038Z,98901.56
2023-05-21T20:07:31.370Z,98906.81
2023-05-21T20:10:16.540Z,98902.78
2023-05-21T20:13:01.983Z,98908.00
2023-05-21T20:15:48.060Z,98910.00
2023-05-21T20:18:33.597Z,98910.41
2023-05-21T20:21:19.062Z,98912.06
2023-05-21T20:24:04.533Z,98903.81
2023-05-21T20:26:50.102Z,98905.03
2023-05-21T20:29:35.905Z,98906.69
2023-05-21T20:32:21.320Z,98909.88
2023-05-21T20:35:09.127Z,98909.88
2023-05-21T20:37:54.772Z,98907.97
2023-05-21T20:40:40.072Z,98907.63
2023-05-21T20:43:25.843Z,98910.03
2023-05-21T20:46:11.193Z,98916.81
2023-05-21T20:48:57.998Z,98911.69
2023-05-21T20:51:43.565Z,98907.78
2023-05-21T20:54:30.830Z,98906.22
2023-05-21T20:57:16.607Z,98907.06
2023-05-21T21:00:02.172Z,98903.94
2023-05-21T21:02:47.748Z,98907.13
2023-05-21T21:05:32.843Z,98917.13
2023-05-21T21:08:18.169Z,98914.75
2023-05-21T21:11:03.649Z,98910.84
2023-05-21T21:13:49.913Z,98919.19
2023-05-21T21:16:35.291Z,98916.06
2023-05-21T21:19:20.558Z,98915.69
2023-05-21T21:22:05.776Z,98910.13
2023-05-21T21:24:51.124Z,98916.56
2023-05-21T21:27:36.378Z,98921.34
2023-05-21T21:30:21.917Z,98918.22
2023-05-21T21:33:08.042Z,98921.41
2023-05-21T21:35:53.753Z,98919.84
2023-05-21T21:38:39.064Z,98921.03
2023-05-21T21:41:24.403Z,98915.59
2023-05-21T21:44:09.978Z,98912.81
2023-05-21T21:46:55.394Z,98916.00
2023-05-21T21:49:41.535Z,98913.22
2023-05-21T21:52:27.572Z,98910.09
2023-05-21T21:55:12.947Z,98914.09
2023-05-21T21:57:58.496Z,98911.72
2023-05-21T22:00:43.717Z,98905.41
2023-05-21T22:03:32.233Z,98905.06
2023-05-21T22:06:17.954Z,98899.91
2023-05-21T22:09:03.402Z,98902.34
2023-05-21T22:11:48.827Z,98904.34
2023-05-21T22:14:34.832Z,98897.63
2023-05-21T22:17:21.338Z,98898.81
2023-05-21T22:20:07.082Z,98897.25
2023-05-21T22:22:54.788Z,98899.25
2023-05-21T22:25:41.474Z,98895.75
2023-05-21T22:28:26.821Z,98898.13
2023-05-21T22:31:12.316Z,98905.28
2023-05-21T22:33:57.793Z,98900.19
2023-05-21T22:36:43.576Z,98902.19
2023-05-21T22:39:28.802Z,98902.59
2023-05-21T22:42:14.134Z,98900.25
2023-05-21T22:44:59.398Z,98905.00
2023-05-21T22:47:44.790Z,98905.88
2023-05-21T22:50:32.860Z,98905.06
2023-05-21T22:53:18.325Z,98912.25
2023-05-21T22:56:03.720Z,98905.94
2023-05-21T22:58:48.900Z,98901.94
2023-05-21T23:01:34.364Z,98900.81
2023-05-21T23:04:29.026Z,98908.34
2023-05-21T23:07:21.641Z,98907.56
2023-05-21T23:10:07.763Z,98899.66
2023-05-21T23:12:54.075Z,98898.88
2023-05-21T23:15:39.446Z,98895.75
2023-05-21T23:18:26.130Z,98896.16
2023-05-21T23:21:11.516Z,98896.63
2023-05-21T23:23:56.668Z,98895.81
2023-05-21T23:26:41.945Z,98898.22
2023-05-21T23:29:27.497Z,98897.44
2023-05-21T23:32:13.146Z,98895.13
2023-05-21T23:34:58.260Z,98897.44
2023-05-21T23:37:43.615Z,98895.53
2023-05-21T23:40:28.842Z,98890.41
2023-05-21T23:43:14.112Z,98893.19
2023-05-21T23:45:59.394Z,98886.06
2023-05-21T23:48:45.177Z,98890.47
2023-05-21T23:51:30.982Z,98886.13
2023-05-21T23:54:17.232Z,98894.88
2023-05-21T23:57:02.544Z,98887.75
2023-05-21T23:59:48.054Z,98886.22
